Time;durP1;ratioP1;P1;durP2;ratioP2;P2;SDS_P1;SDS_P2;PMS_P1;PMS_P2;Temp;Humidity;BMP_temperature;BMP_pressure;BME280_temperature;BME280_humidity;BME280_pressure;Samples;Min_cycle;Max_cycle;Signal;HPM_P1;HPM_P2
2023/06/27 00:00:00;;;;;;;9.57;2.70;;;16.50;99.90;;;;;;5011052;28;20226;-64
2023/06/27 00:02:31;;;;;;;8.43;2.87;;;16.40;99.90;;;;;;5010695;28;20307;-64
2023/06/27 00:05:00;;;;;;;8.93;2.90;;;16.40;99.90;;;;;;5011636;28;20696;-64
2023/06/27 00:07:29;;;;;;;11.67;3.20;;;16.30;99.90;;;;;;5011954;28;20765;-64
2023/06/27 00:09:57;;;;;;;9.40;2.60;;;16.30;99.90;;;;;;5012672;28;20304;-64
2023/06/27 00:12:25;;;;;;;9.57;2.67;;;16.30;99.90;;;;;;5015049;28;20271;-63
2023/06/27 00:14:54;;;;;;;8.73;3.13;;;16.30;99.90;;;;;;5014178;28;20256;-63
2023/06/27 00:17:24;;;;;;;7.07;2.70;;;16.20;99.90;;;;;;5017725;28;20704;-63
2023/06/27 00:19:57;;;;;;;8.57;2.83;;;16.10;99.90;;;;;;5015215;28;20226;-63
2023/06/27 00:22:26;;;;;;;7.50;2.70;;;16.10;99.90;;;;;;5015134;28;20233;-63
2023/06/27 00:24:55;;;;;;;11.27;3.10;;;16.00;99.90;;;;;;5012855;28;20241;-63
2023/06/27 00:27:23;;;;;;;6.87;2.60;;;16.00;99.90;;;;;;5015459;28;20305;-63
2023/06/27 00:29:51;;;;;;;9.33;2.80;;;16.00;99.90;;;;;;5014905;28;20307;-63
2023/06/27 00:32:19;;;;;;;7.40;2.57;;;16.00;99.90;;;;;;5015275;28;22251;-63
2023/06/27 00:34:48;;;;;;;10.50;3.20;;;15.90;99.90;;;;;;5015569;28;20309;-63
2023/06/27 00:37:16;;;;;;;9.23;2.80;;;16.00;99.90;;;;;;5016046;28;20747;-63
2023/06/27 00:39:44;;;;;;;7.97;2.70;;;15.90;99.90;;;;;;5015669;28;20249;-63
2023/06/27 00:42:12;;;;;;;9.63;2.93;;;15.90;99.90;;;;;;5015919;28;20678;-63
2023/06/27 00:44:40;;;;;;;7.30;3.37;;;15.90;99.90;;;;;;5014165;28;20217;-63
2023/06/27 00:47:09;;;;;;;9.93;3.47;;;15.80;99.90;;;;;;5017141;28;20721;-63
2023/06/27 00:49:37;;;;;;;8.23;2.90;;;15.80;99.90;;;;;;5017873;28;20300;-63
2023/06/27 00:52:08;;;;;;;5.60;2.60;;;15.80;99.90;;;;;;5013644;28;20233;-63
2023/06/27 00:54:37;;;;;;;8.53;2.90;;;15.80;99.90;;;;;;5016148;28;20249;-63
2023/06/27 00:57:05;;;;;;;11.87;3.13;;;15.70;99.90;;;;;;5010517;28;20216;-63
2023/06/27 00:59:37;;;;;;;9.00;2.93;;;15.70;99.90;;;;;;5029648;28;20225;-63
2023/06/27 01:02:05;;;;;;;9.37;2.93;;;15.60;99.90;;;;;;5013767;28;20237;-63
2023/06/27 01:04:36;;;;;;;12.17;2.80;;;15.70;99.90;;;;;;5016409;28;20307;-63
2023/06/27 01:07:15;;;;;;;7.40;2.67;;;15.60;99.90;;;;;;5016536;28;20232;-63
2023/06/27 01:09:48;;;;;;;10.07;2.90;;;15.60;99.90;;;;;;5015916;28;20308;-63
2023/06/27 01:12:24;;;;;;;11.53;2.87;;;15.60;99.90;;;;;;5015364;28;20238;-63
2023/06/27 01:14:56;;;;;;;12.07;2.87;;;15.50;99.90;;;;;;5014469;28;20228;-63
2023/06/27 01:17:26;;;;;;;10.90;2.70;;;15.50;99.90;;;;;;5016400;28;20765;-63
2023/06/27 01:19:55;;;;;;;10.43;2.77;;;15.50;99.90;;;;;;5014175;28;20225;-63
2023/06/27 01:22:31;;;;;;;9.03;2.80;;;15.60;99.90;;;;;;5012402;28;20727;-63
2023/06/27 01:25:00;;;;;;;7.43;2.50;;;15.60;99.90;;;;;;5013422;28;20331;-64
2023/06/27 01:27:29;;;;;;;14.30;3.73;;;15.60;99.90;;;;;;5014400;28;20304;-63
2023/06/27 01:29:57;;;;;;;10.73;2.67;;;15.60;99.90;;;;;;5013523;28;20248;-63
2023/06/27 01:32:28;;;;;;;14.37;3.00;;;15.50;99.90;;;;;;5013948;28;20269;-63
2023/06/27 01:35:04;;;;;;;9.60;2.70;;;15.50;99.90;;;;;;5014810;28;20554;-63
2023/06/27 01:37:36;;;;;;;9.47;3.50;;;15.50;99.90;;;;;;5013154;28;20526;-63
2023/06/27 01:40:09;;;;;;;8.60;2.50;;;15.50;99.90;;;;;;5013529;28;20635;-63
2023/06/27 01:42:42;;;;;;;9.73;2.63;;;15.50;99.90;;;;;;5012794;28;20260;-63
2023/06/27 01:45:12;;;;;;;8.87;2.80;;;15.50;99.90;;;;;;5010578;28;20709;-63
2023/06/27 01:47:43;;;;;;;7.43;2.73;;;15.60;99.90;;;;;;5014918;28;20569;-63
2023/06/27 01:50:12;;;;;;;9.00;2.43;;;15.60;99.90;;;;;;5009350;28;20719;-63
2023/06/27 01:52:40;;;;;;;6.67;2.30;;;15.60;99.90;;;;;;5013892;28;20217;-63
2023/06/27 01:55:10;;;;;;;5.90;2.53;;;15.50;99.90;;;;;;5013342;28;20706;-63
2023/06/27 01:57:38;;;;;;;9.30;2.90;;;15.60;99.90;;;;;;5013577;28;20654;-63
2023/06/27 02:00:08;;;;;;;10.60;2.93;;;15.60;99.90;;;;;;5010897;28;20685;-63
2023/06/27 02:02:45;;;;;;;8.30;2.47;;;15.50;99.90;;;;;;5013064;28;20718;-63
2023/06/27 02:05:15;;;;;;;8.27;2.60;;;15.50;99.90;;;;;;5012318;28;20229;-63
2023/06/27 02:07:43;;;;;;;9.93;2.97;;;15.50;99.90;;;;;;5012104;28;20316;-63
2023/06/27 02:10:13;;;;;;;9.13;2.83;;;15.50;99.90;;;;;;5012439;28;20713;-63
2023/06/27 02:12:41;;;;;;;6.40;2.33;;;15.50;99.90;;;;;;5013391;28;20244;-63
2023/06/27 02:15:09;;;;;;;7.57;2.70;;;15.60;99.90;;;;;;5009255;28;20232;-63
2023/06/27 02:17:38;;;;;;;5.13;2.33;;;15.50;99.90;;;;;;5013276;28;20221;-63
2023/06/27 02:20:07;;;;;;;6.47;2.70;;;15.50;99.90;;;;;;5013205;28;20224;-64
2023/06/27 02:22:35;;;;;;;7.60;2.33;;;15.50;99.90;;;;;;5028432;28;20676;-65
2023/06/27 02:25:07;;;;;;;7.23;3.20;;;15.50;99.90;;;;;;5011499;28;20279;-65
2023/06/27 02:27:36;;;;;;;7.10;2.60;;;15.50;99.90;;;;;;5012215;28;20225;-64
2023/06/27 02:30:05;;;;;;;7.97;2.53;;;15.60;99.90;;;;;;5010240;28;20584;-63
2023/06/27 02:32:33;;;;;;;8.50;3.00;;;15.60;99.90;;;;;;5010987;28;20240;-63
2023/06/27 02:35:01;;;;;;;5.27;2.50;;;15.60;99.90;;;;;;5012898;28;20225;-64
2023/06/27 02:37:29;;;;;;;7.20;2.70;;;15.60;99.90;;;;;;5012863;28;20303;-63
2023/06/27 02:39:57;;;;;;;6.23;2.67;;;15.60;99.90;;;;;;5013081;28;20689;-63
2023/06/27 02:42:25;;;;;;;5.63;2.50;;;15.50;99.90;;;;;;5012731;28;20304;-63
2023/06/27 02:44:56;;;;;;;6.43;2.47;;;15.60;99.90;;;;;;5010113;28;20328;-64
2023/06/27 02:47:24;;;;;;;8.00;2.60;;;15.50;99.90;;;;;;5011577;28;20217;-63
2023/06/27 02:49:52;;;;;;;8.43;2.60;;;15.60;99.90;;;;;;5013355;28;20309;-64
2023/06/27 02:52:20;;;;;;;6.63;2.47;;;15.60;99.90;;;;;;5011691;28;20229;-64
2023/06/27 02:54:49;;;;;;;5.63;2.30;;;15.60;99.90;;;;;;5008496;28;20221;-64
2023/06/27 02:57:18;;;;;;;4.97;2.27;;;15.50;99.90;;;;;;5011420;28;20218;-63
2023/06/27 02:59:47;;;;;;;5.90;2.10;;;15.50;99.90;;;;;;5011196;28;20248;-63
2023/06/27 03:02:18;;;;;;;5.30;2.30;;;15.50;99.90;;;;;;5009267;28;20225;-63
2023/06/27 03:04:47;;;;;;;6.37;1.97;;;15.50;99.90;;;;;;5005614;28;20228;-63
2023/06/27 03:07:15;;;;;;;7.10;2.03;;;15.50;99.90;;;;;;5011285;28;20701;-63
2023/06/27 03:09:44;;;;;;;5.27;2.33;;;15.50;99.90;;;;;;5011099;28;20732;-63
2023/06/27 03:12:14;;;;;;;4.57;1.70;;;15.50;99.90;;;;;;5011413;28;20774;-63
2023/06/27 03:14:42;;;;;;;4.07;1.90;;;15.40;99.90;;;;;;5011060;28;20766;-63
2023/06/27 03:17:11;;;;;;;5.20;2.20;;;15.40;99.90;;;;;;5010598;28;20311;-63
2023/06/27 03:19:41;;;;;;;4.97;1.77;;;15.40;99.90;;;;;;5013490;28;20267;-63
2023/06/27 03:22:14;;;;;;;2.73;1.80;;;15.40;99.90;;;;;;5013043;28;20311;-63
2023/06/27 03:24:42;;;;;;;4.77;1.50;;;15.40;99.90;;;;;;5009741;28;20700;-63
2023/06/27 03:27:10;;;;;;;2.43;1.60;;;15.30;99.90;;;;;;5025385;28;20230;-63
2023/06/27 03:29:41;;;;;;;3.27;1.63;;;15.30;99.90;;;;;;5015074;28;20693;-63
2023/06/27 03:32:12;;;;;;;3.47;1.50;;;15.30;99.90;;;;;;5008835;28;20279;-63
2023/06/27 03:34:42;;;;;;;2.77;1.57;;;15.30;99.90;;;;;;5014688;28;20248;-63
2023/06/27 03:37:11;;;;;;;5.20;1.60;;;15.30;99.90;;;;;;5014929;28;20213;-63
2023/06/27 03:39:39;;;;;;;3.27;1.80;;;15.30;99.90;;;;;;5011993;28;20221;-63
2023/06/27 03:42:08;;;;;;;3.83;1.73;;;15.20;99.90;;;;;;5011455;28;20221;-63
2023/06/27 03:44:36;;;;;;;3.73;1.80;;;15.20;99.90;;;;;;5010927;28;20232;-63
2023/06/27 03:47:05;;;;;;;4.13;1.80;;;15.20;99.90;;;;;;5027094;28;20669;-64
2023/06/27 03:49:33;;;;;;;5.20;2.00;;;15.20;99.90;;;;;;5026014;28;20586;-63
2023/06/27 03:52:03;;;;;;;3.63;1.80;;;15.30;99.90;;;;;;5013433;28;20221;-64
2023/06/27 03:54:31;;;;;;;8.00;2.83;;;15.40;99.90;;;;;;5010504;28;20578;-64
2023/06/27 03:56:59;;;;;;;6.27;2.37;;;15.50;99.90;;;;;;5011978;28;20229;-64
2023/06/27 03:59:27;;;;;;;8.77;2.90;;;15.60;99.90;;;;;;5010291;28;20312;-64
2023/06/27 04:01:56;;;;;;;6.27;2.90;;;15.70;99.90;;;;;;5010953;28;20593;-64
2023/06/27 04:04:24;;;;;;;6.27;2.90;;;15.70;99.90;;;;;;5010498;28;20685;-64
2023/06/27 04:06:54;;;;;;;7.87;3.40;;;15.70;99.90;;;;;;5010734;28;20744;-64
2023/06/27 04:09:23;;;;;;;5.77;3.13;;;15.70;99.90;;;;;;5010583;28;20229;-64
2023/06/27 04:11:51;;;;;;;8.53;3.77;;;15.70;99.90;;;;;;5008114;28;20695;-64
2023/06/27 04:14:19;;;;;;;5.57;3.20;;;15.70;99.90;;;;;;5010722;28;20264;-64
2023/06/27 04:16:47;;;;;;;8.40;3.10;;;15.60;99.90;;;;;;5010059;28;20283;-64
2023/06/27 04:19:15;;;;;;;8.90;3.37;;;15.60;99.90;;;;;;5010324;28;20236;-64
2023/06/27 04:21:43;;;;;;;9.90;3.33;;;15.60;99.90;;;;;;5010125;28;20229;-64
2023/06/27 04:24:11;;;;;;;6.20;3.40;;;15.60;99.90;;;;;;5010179;28;20268;-64
2023/06/27 04:26:42;;;;;;;7.77;3.17;;;15.60;99.90;;;;;;5007380;28;20256;-64
2023/06/27 04:29:10;;;;;;;8.53;4.03;;;15.60;99.90;;;;;;5011945;28;20303;-64
2023/06/27 04:31:38;;;;;;;10.67;3.93;;;15.70;99.90;;;;;;5008712;28;20726;-64
2023/06/27 04:34:08;;;;;;;7.23;3.50;;;15.80;99.90;;;;;;5012229;28;20225;-64
2023/06/27 04:36:40;;;;;;;7.23;3.47;;;15.80;99.90;;;;;;5011903;28;20245;-63
2023/06/27 04:39:09;;;;;;;9.77;3.70;;;15.80;99.90;;;;;;5010778;28;20721;-64
2023/06/27 04:41:37;;;;;;;11.70;3.87;;;15.80;99.90;;;;;;5012322;28;20222;-63
2023/06/27 04:44:07;;;;;;;9.27;3.90;;;15.80;99.90;;;;;;5011191;28;20229;-63
2023/06/27 04:46:35;;;;;;;8.83;3.40;;;15.70;99.90;;;;;;5010374;28;20229;-64
2023/06/27 04:49:03;;;;;;;10.50;4.17;;;15.70;99.90;;;;;;5010216;28;20233;-63
2023/06/27 04:51:33;;;;;;;6.27;3.50;;;15.70;99.90;;;;;;5013308;28;20299;-63
2023/06/27 04:54:01;;;;;;;7.60;3.43;;;15.70;99.90;;;;;;5012111;28;20782;-61
2023/06/27 04:56:29;;;;;;;5.50;2.80;;;15.60;99.90;;;;;;5012798;28;20241;-62
2023/06/27 04:58:57;;;;;;;6.03;3.07;;;15.50;99.90;;;;;;5014825;28;20218;-63
2023/06/27 05:01:27;;;;;;;7.80;3.10;;;15.50;99.90;;;;;;5012791;28;20237;-63
2023/06/27 05:04:04;;;;;;;5.20;2.67;;;15.50;99.90;;;;;;5013972;28;20317;-63
2023/06/27 05:06:32;;;;;;;7.07;2.67;;;15.50;99.90;;;;;;5013775;28;20265;-62
2023/06/27 05:09:01;;;;;;;6.13;2.90;;;15.50;99.90;;;;;;5014694;28;20335;-61
2023/06/27 05:11:30;;;;;;;4.17;2.90;;;15.50;99.90;;;;;;5014481;28;20225;-61
2023/06/27 05:13:58;;;;;;;6.80;2.77;;;15.50;99.90;;;;;;5014732;28;20272;-61
2023/06/27 05:16:27;;;;;;;5.63;3.17;;;15.50;99.90;;;;;;5015570;28;20239;-61
2023/06/27 05:18:55;;;;;;;6.20;3.13;;;15.50;99.90;;;;;;5010644;28;20229;-61
2023/06/27 05:21:24;;;;;;;6.17;3.10;;;15.60;99.90;;;;;;5012870;28;20230;-61
2023/06/27 05:23:52;;;;;;;5.33;2.50;;;15.60;99.90;;;;;;5008526;28;20307;-61
2023/06/27 05:26:20;;;;;;;5.17;2.53;;;15.60;99.90;;;;;;5016363;28;20229;-61
2023/06/27 05:28:48;;;;;;;6.63;2.60;;;15.70;99.90;;;;;;5012950;28;20286;-60
2023/06/27 05:31:20;;;;;;;7.10;2.57;;;15.80;99.90;;;;;;5018528;28;20225;-67
2023/06/27 05:33:49;;;;;;;4.03;2.17;;;16.00;99.90;;;;;;5035222;28;20248;-65
2023/06/27 05:36:17;;;;;;;3.97;2.20;;;16.20;99.90;;;;;;5026789;28;20235;-65
2023/06/27 05:38:45;;;;;;;4.57;2.30;;;16.30;99.90;;;;;;5023274;28;20224;-64
2023/06/27 05:41:17;;;;;;;3.07;1.83;;;16.40;99.90;;;;;;5026245;28;20227;-66
2023/06/27 05:43:46;;;;;;;4.03;1.90;;;16.40;99.90;;;;;;5026162;28;20220;-64
2023/06/27 05:46:14;;;;;;;5.53;1.80;;;16.50;99.90;;;;;;5021760;28;20240;-65
2023/06/27 05:48:42;;;;;;;4.47;2.27;;;16.70;99.90;;;;;;5027918;28;20209;-65
2023/06/27 05:51:11;;;;;;;3.43;2.07;;;16.80;99.90;;;;;;5025844;28;20233;-65
2023/06/27 05:53:40;;;;;;;5.83;2.00;;;17.10;99.90;;;;;;5023600;28;20222;-66
2023/06/27 05:56:08;;;;;;;3.73;1.90;;;17.40;99.90;;;;;;5020841;28;20229;-66
2023/06/27 05:58:36;;;;;;;3.43;1.90;;;17.70;99.90;;;;;;5019491;28;20315;-68
2023/06/27 06:01:04;;;;;;;7.13;2.40;;;18.00;99.90;;;;;;5032751;28;20339;-65
2023/06/27 06:03:33;;;;;;;5.50;2.37;;;18.20;99.90;;;;;;5014950;28;20297;-67
2023/06/27 06:06:02;;;;;;;4.43;2.50;;;18.40;99.90;;;;;;5011476;28;20238;-68
2023/06/27 06:08:31;;;;;;;4.30;2.53;;;18.80;99.90;;;;;;5012377;28;20762;-65
2023/06/27 06:10:59;;;;;;;6.57;2.80;;;19.10;99.90;;;;;;5009569;28;20328;-68
2023/06/27 06:13:27;;;;;;;7.73;2.73;;;19.30;99.90;;;;;;5007053;28;20278;-66
2023/06/27 06:15:55;;;;;;;6.10;2.27;;;19.40;99.90;;;;;;5001739;28;20228;-68
2023/06/27 06:18:23;;;;;;;7.87;3.20;;;19.60;99.90;;;;;;5004528;28;20234;-69
2023/06/27 06:20:51;;;;;;;5.73;2.57;;;19.70;99.90;;;;;;5002657;28;20224;-67
2023/06/27 06:23:20;;;;;;;7.77;2.47;;;19.90;99.90;;;;;;5002776;28;20250;-66
2023/06/27 06:25:49;;;;;;;9.50;2.77;;;20.30;99.90;;;;;;5000675;28;20228;-67
2023/06/27 06:28:18;;;;;;;7.00;2.43;;;20.40;99.90;;;;;;5005136;28;20603;-66
2023/06/27 06:30:46;;;;;;;7.80;2.20;;;20.40;99.90;;;;;;5006063;28;20253;-66
2023/06/27 06:33:14;;;;;;;5.33;2.30;;;20.40;99.90;;;;;;5008952;28;20264;-67
2023/06/27 06:35:42;;;;;;;3.33;1.93;;;20.60;99.90;;;;;;5005180;28;20236;-67
2023/06/27 06:38:10;;;;;;;4.73;2.07;;;20.70;99.90;;;;;;5008601;28;20267;-67
2023/06/27 06:40:38;;;;;;;3.83;2.00;;;20.90;99.90;;;;;;5008642;28;20312;-69
2023/06/27 06:43:08;;;;;;;2.83;1.70;;;21.10;99.90;;;;;;5007690;28;20305;-66
2023/06/27 06:45:36;;;;;;;4.17;1.63;;;21.20;99.90;;;;;;5006003;28;20252;-71
2023/06/27 06:48:04;;;;;;;4.67;1.70;;;21.40;99.90;;;;;;5006309;28;20240;-70
2023/06/27 06:50:33;;;;;;;3.17;1.33;;;21.50;99.90;;;;;;5004355;28;20248;-72
2023/06/27 06:53:01;;;;;;;5.77;1.50;;;21.80;99.90;;;;;;5005944;28;20229;-67
2023/06/27 06:55:29;;;;;;;2.90;1.73;;;21.90;99.90;;;;;;5002966;28;20295;-66
2023/06/27 06:57:57;;;;;;;4.43;1.70;;;21.70;99.90;;;;;;5005256;28;20245;-73
2023/06/27 07:00:26;;;;;;;3.70;1.50;;;21.20;99.90;;;;;;5007082;28;20736;-69
2023/06/27 07:02:55;;;;;;;4.67;1.53;;;20.50;99.90;;;;;;5004691;28;20231;-72
2023/06/27 07:05:23;;;;;;;4.17;1.53;;;19.80;99.90;;;;;;5000273;28;20228;-67
2023/06/27 07:07:51;;;;;;;4.50;1.60;;;19.40;99.90;;;;;;4997621;28;20319;-72
2023/06/27 07:10:19;;;;;;;5.47;1.70;;;19.00;99.90;;;;;;4995019;28;20240;-72
2023/06/27 07:12:47;;;;;;;5.37;1.90;;;18.70;99.90;;;;;;4994554;28;20684;-72
2023/06/27 07:15:17;;;;;;;3.80;1.70;;;18.60;99.90;;;;;;4992809;28;20283;-66
2023/06/27 07:17:46;;;;;;;3.77;1.30;;;18.50;99.90;;;;;;4994900;28;20223;-67
2023/06/27 07:20:15;;;;;;;3.80;1.27;;;18.50;99.90;;;;;;4994590;28;20220;-71
2023/06/27 07:22:44;;;;;;;4.27;1.33;;;18.60;99.90;;;;;;4996868;28;20231;-70
2023/06/27 07:25:12;;;;;;;2.33;1.17;;;18.70;99.90;;;;;;4996180;28;20314;-73
2023/06/27 07:27:40;;;;;;;3.03;1.20;;;18.70;99.90;;;;;;4996577;28;20240;-69
2023/06/27 07:30:09;;;;;;;3.03;1.17;;;18.80;99.90;;;;;;4999996;28;20240;-73
2023/06/27 07:32:37;;;;;;;4.50;1.30;;;18.60;99.90;;;;;;5001252;28;20293;-68
2023/06/27 07:35:08;;;;;;;4.10;1.43;;;18.50;99.90;;;;;;5003577;28;20263;-73
2023/06/27 07:37:37;;;;;;;4.83;1.50;;;18.50;99.90;;;;;;5006872;28;20236;-67
2023/06/27 07:40:07;;;;;;;3.47;1.20;;;19.10;99.90;;;;;;5015909;28;20223;-68
2023/06/27 07:42:35;;;;;;;2.70;1.20;;;19.60;99.90;;;;;;5013214;28;20228;-67
2023/06/27 07:45:03;;;;;;;3.33;1.10;;;19.70;99.90;;;;;;5007012;28;20660;-66
2023/06/27 07:47:31;;;;;;;2.57;1.27;;;19.80;99.90;;;;;;5004196;28;20239;-70
2023/06/27 07:50:00;;;;;;;3.03;1.00;;;19.90;99.90;;;;;;5007176;28;20272;-68
2023/06/27 07:52:30;;;;;;;2.57;1.10;;;20.70;99.90;;;;;;5005754;28;20242;-68
2023/06/27 07:54:58;;;;;;;2.90;1.10;;;21.60;99.90;;;;;;4998923;28;20696;-67
2023/06/27 07:57:26;;;;;;;3.77;1.40;;;21.70;99.90;;;;;;4998239;28;20289;-68
2023/06/27 07:59:54;;;;;;;7.33;1.47;;;21.10;99.90;;;;;;4997933;28;20228;-71
2023/06/27 08:02:22;;;;;;;3.90;1.40;;;20.60;99.90;;;;;;4997351;28;20229;-67
2023/06/27 08:04:50;;;;;;;4.00;1.40;;;20.40;99.90;;;;;;4996855;28;20236;-71
2023/06/27 08:07:18;;;;;;;4.47;1.40;;;19.70;99.90;;;;;;4995822;28;20259;-66
2023/06/27 08:09:48;;;;;;;4.77;1.83;;;19.60;99.90;;;;;;4994510;28;20233;-70
2023/06/27 08:12:16;;;;;;;3.70;1.60;;;19.50;99.90;;;;;;5000706;28;20217;-73
2023/06/27 08:14:45;;;;;;;4.83;1.90;;;19.30;99.90;;;;;;5010898;28;20224;-74
2023/06/27 08:17:13;;;;;;;5.17;1.60;;;19.40;99.90;;;;;;5008798;28;20274;-73
2023/06/27 08:19:41;;;;;;;3.87;1.67;;;19.40;99.90;;;;;;5010993;28;20228;-70
2023/06/27 08:22:09;;;;;;;4.10;1.70;;;19.50;99.90;;;;;;5013470;28;20225;-73
2023/06/27 08:24:37;;;;;;;2.43;1.60;;;19.70;99.90;;;;;;5012591;28;20264;-73
2023/06/27 08:27:08;;;;;;;2.83;1.53;;;19.70;99.90;;;;;;5015072;28;20236;-74
2023/06/27 08:29:36;;;;;;;3.70;1.50;;;20.00;99.90;;;;;;5013176;28;20232;-73
2023/06/27 08:32:05;;;;;;;3.63;1.63;;;20.40;99.90;;;;;;5016685;28;20327;-73
2023/06/27 08:34:38;;;;;;;4.20;1.90;;;20.80;99.90;;;;;;5018164;28;20235;-72
2023/06/27 08:37:06;;;;;;;6.10;1.53;;;21.30;99.90;;;;;;5017750;28;20689;-71
2023/06/27 08:39:35;;;;;;;4.57;1.73;;;21.50;99.90;;;;;;5013654;28;20228;-73
2023/06/27 08:42:03;;;;;;;4.33;1.43;;;21.00;99.90;;;;;;5014633;28;20576;-73
2023/06/27 08:44:32;;;;;;;4.73;1.50;;;20.90;99.90;;;;;;5014108;28;20229;-72
2023/06/27 08:47:03;;;;;;;4.87;1.60;;;21.30;99.90;;;;;;5025071;28;20229;-73
2023/06/27 08:49:34;;;;;;;5.37;1.53;;;22.40;99.90;;;;;;5014249;28;20640;-71
2023/06/27 08:52:05;;;;;;;4.13;1.30;;;23.20;99.90;;;;;;5013699;28;20231;-70
2023/06/27 08:54:38;;;;;;;4.87;1.20;;;24.20;99.90;;;;;;5011348;28;20221;-70
2023/06/27 08:57:07;;;;;;;3.00;1.20;;;24.40;99.90;;;;;;5010538;28;20225;-69
2023/06/27 08:59:37;;;;;;;3.07;1.10;;;24.40;99.90;;;;;;5011834;28;20225;-70
2023/06/27 09:02:07;;;;;;;3.10;1.20;;;24.10;99.90;;;;;;5027481;28;20233;-70
2023/06/27 09:04:35;;;;;;;3.47;0.90;;;22.90;99.90;;;;;;5010500;28;20221;-71
2023/06/27 09:07:06;;;;;;;3.50;1.00;;;22.30;99.90;;;;;;5012656;28;20229;-71
2023/06/27 09:09:36;;;;;;;3.03;1.00;;;22.60;99.90;;;;;;5011583;28;20248;-71
2023/06/27 09:12:06;;;;;;;2.63;1.10;;;22.90;99.90;;;;;;5013325;28;20584;-71
2023/06/27 09:14:35;;;;;;;1.83;0.97;;;23.30;99.90;;;;;;5012510;28;20732;-73
2023/06/27 09:17:05;;;;;;;3.20;1.10;;;23.00;99.90;;;;;;5015381;28;20236;-72
2023/06/27 09:19:36;;;;;;;3.37;0.80;;;23.00;99.90;;;;;;5016234;28;20218;-72
2023/06/27 09:22:05;;;;;;;2.33;0.90;;;23.20;99.90;;;;;;5012496;28;20584;-72
2023/06/27 09:24:40;;;;;;;3.77;1.20;;;23.90;99.90;;;;;;5011492;28;20241;-72
2023/06/27 09:27:08;;;;;;;2.63;1.10;;;23.70;99.90;;;;;;5012779;28;20348;-69
2023/06/27 09:29:38;;;;;;;3.53;1.27;;;23.60;99.90;;;;;;5013538;28;20312;-73
2023/06/27 09:32:08;;;;;;;4.53;1.20;;;23.20;99.90;;;;;;5012573;28;20233;-72
2023/06/27 09:34:37;;;;;;;2.77;1.10;;;23.50;99.90;;;;;;5012869;28;20580;-72
2023/06/27 09:37:05;;;;;;;3.83;1.20;;;24.20;99.90;;;;;;5012374;28;20230;-71
2023/06/27 09:39:36;;;;;;;3.17;1.23;;;24.80;99.90;;;;;;5013270;28;20224;-73
2023/06/27 09:42:05;;;;;;;6.20;1.50;;;24.60;99.90;;;;;;5013099;28;20249;-73
2023/06/27 09:44:33;;;;;;;4.23;1.20;;;24.70;99.90;;;;;;5011750;28;20213;-68
2023/06/27 09:47:03;;;;;;;3.20;0.97;;;25.00;99.90;;;;;;5014817;28;21209;-72
2023/06/27 09:49:32;;;;;;;3.67;1.33;;;25.10;99.90;;;;;;5012778;28;20578;-72
2023/06/27 09:52:04;;;;;;;5.03;1.20;;;25.20;99.90;;;;;;5013723;28;20752;-74
2023/06/27 09:54:32;;;;;;;4.60;1.10;;;25.30;99.90;;;;;;5001559;28;20257;-73
2023/06/27 09:57:02;;;;;;;5.00;1.27;;;25.10;99.90;;;;;;4994386;28;20231;-67
2023/06/27 09:59:30;;;;;;;7.67;1.57;;;24.80;99.90;;;;;;4992958;28;20579;-72
2023/06/27 10:02:02;;;;;;;3.13;1.17;;;25.20;99.90;;;;;;4991982;28;20239;-73
2023/06/27 10:04:30;;;;;;;4.77;1.30;;;25.20;99.90;;;;;;4991938;28;20231;-69
2023/06/27 10:07:08;;;;;;;4.87;1.50;;;25.20;99.90;;;;;;5009224;28;20745;-72
2023/06/27 10:09:38;;;;;;;4.70;1.30;;;24.70;99.90;;;;;;4994582;28;20589;-72
2023/06/27 10:12:07;;;;;;;4.30;1.20;;;23.90;99.90;;;;;;4996038;28;20219;-72
2023/06/27 10:14:36;;;;;;;3.80;1.13;;;23.10;99.90;;;;;;4993311;28;20751;-71
2023/06/27 10:17:06;;;;;;;2.63;1.00;;;22.60;99.90;;;;;;4993425;28;20344;-70
2023/06/27 10:19:37;;;;;;;4.03;1.10;;;22.40;99.90;;;;;;5009602;28;20590;-71
2023/06/27 10:22:10;;;;;;;3.67;1.10;;;22.50;99.90;;;;;;4995529;28;20234;-73
2023/06/27 10:24:41;;;;;;;3.80;1.40;;;23.20;99.90;;;;;;4993457;28;20324;-66
2023/06/27 10:27:13;;;;;;;5.10;1.20;;;24.70;99.90;;;;;;4995629;28;20229;-66
2023/06/27 10:29:42;;;;;;;2.93;1.10;;;25.40;99.90;;;;;;4992991;28;20345;-66
2023/06/27 10:32:15;;;;;;;5.60;1.27;;;25.80;99.90;;;;;;4994206;28;20725;-66
2023/06/27 10:34:44;;;;;;;4.20;1.23;;;26.00;99.90;;;;;;4993226;28;20227;-66
2023/06/27 10:37:21;;;;;;;5.30;1.40;;;26.80;99.90;;;;;;4994720;28;20643;-66
2023/06/27 10:39:56;;;;;;;3.90;1.30;;;26.50;99.90;;;;;;4994822;28;20248;-66
2023/06/27 10:42:29;;;;;;;4.23;1.00;;;25.60;99.90;;;;;;4992679;28;20239;-66
2023/06/27 10:45:07;;;;;;;5.63;1.40;;;24.50;99.90;;;;;;4990980;28;20232;-66
2023/06/27 10:47:41;;;;;;;4.60;1.30;;;23.70;99.90;;;;;;4992787;28;20320;-66
2023/06/27 10:50:12;;;;;;;5.00;1.37;;;23.10;99.90;;;;;;5009815;28;20241;-66
2023/06/27 10:52:59;;;;;;;4.17;1.23;;;22.70;99.90;;;;;;4992910;28;20938;-66
2023/06/27 10:55:30;;;;;;;4.47;1.20;;;22.50;99.90;;;;;;4992941;28;20639;-66
2023/06/27 10:58:06;;;;;;;3.33;1.13;;;22.40;99.90;;;;;;4995391;28;20312;-66
2023/06/27 11:00:35;;;;;;;5.10;1.37;;;22.50;99.90;;;;;;4992222;28;21239;-67
2023/06/27 11:03:06;;;;;;;5.07;1.30;;;22.60;99.90;;;;;;4991138;28;20228;-67
2023/06/27 11:05:46;;;;;;;4.70;1.20;;;23.40;99.90;;;;;;4993333;28;20222;-67
2023/06/27 11:08:17;;;;;;;2.23;1.03;;;24.70;99.90;;;;;;4992674;28;20219;-67
2023/06/27 11:11:01;;;;;;;2.63;0.93;;;26.10;99.90;;;;;;4992146;28;20259;-66
2023/06/27 11:13:31;;;;;;;8.57;1.20;;;26.10;99.90;;;;;;4991070;28;20227;-66
2023/06/27 11:15:59;;;;;;;3.83;1.00;;;25.20;99.90;;;;;;4992595;28;20234;-66
2023/06/27 11:18:29;;;;;;;6.00;1.20;;;24.20;99.90;;;;;;4994146;28;20233;-67
2023/06/27 11:20:58;;;;;;;4.07;1.13;;;23.40;99.90;;;;;;5008046;28;20695;-66
2023/06/27 11:23:26;;;;;;;5.33;1.00;;;23.10;99.90;;;;;;4990410;28;20337;-68
2023/06/27 11:25:55;;;;;;;5.10;1.20;;;23.10;99.90;;;;;;4993690;28;20269;-67
2023/06/27 11:28:25;;;;;;;3.40;1.03;;;23.30;99.90;;;;;;4996316;28;20234;-67
2023/06/27 11:30:59;;;;;;;3.63;0.90;;;24.00;99.90;;;;;;4993409;28;20242;-68
2023/06/27 11:33:29;;;;;;;5.17;1.10;;;24.50;99.90;;;;;;4991108;28;20383;-67
2023/06/27 11:35:59;;;;;;;4.23;1.17;;;24.60;99.90;;;;;;4993941;28;20227;-67
2023/06/27 11:38:28;;;;;;;1.87;0.90;;;25.10;99.90;;;;;;4992129;28;20555;-67
2023/06/27 11:40:57;;;;;;;3.30;0.90;;;24.80;99.90;;;;;;4992698;28;20300;-67
2023/06/27 11:43:26;;;;;;;3.87;0.90;;;24.10;99.90;;;;;;4992473;28;20337;-67
2023/06/27 11:45:57;;;;;;;3.23;0.93;;;24.00;99.90;;;;;;4991088;28;20223;-67
2023/06/27 11:48:25;;;;;;;3.17;1.00;;;24.20;99.90;;;;;;4993039;28;21458;-67
2023/06/27 11:50:55;;;;;;;2.47;0.80;;;24.10;99.90;;;;;;4993090;28;20246;-67
2023/06/27 11:53:26;;;;;;;3.30;0.83;;;24.20;99.90;;;;;;4992006;28;20792;-67
2023/06/27 11:55:55;;;;;;;3.70;1.00;;;24.40;99.90;;;;;;4992919;28;20246;-67
2023/06/27 11:58:40;;;;;;;3.83;1.03;;;24.40;99.90;;;;;;4989912;28;20231;-67
2023/06/27 12:01:13;;;;;;;4.27;0.97;;;23.80;99.90;;;;;;4992168;28;20590;-67
2023/06/27 12:03:46;;;;;;;3.20;0.80;;;23.50;99.90;;;;;;4992430;28;20222;-68
2023/06/27 12:06:26;;;;;;;3.27;0.80;;;23.60;99.90;;;;;;4992882;28;20232;-67
2023/06/27 12:08:54;;;;;;;4.50;1.77;;;23.60;99.90;;;;;;4996965;28;20261;-67
2023/06/27 12:11:27;;;;;;;3.13;1.03;;;23.50;99.90;;;;;;4997825;28;20605;-67
2023/06/27 12:13:55;;;;;;;3.93;1.10;;;23.90;99.90;;;;;;4994645;28;20339;-68
2023/06/27 12:16:27;;;;;;;2.80;0.90;;;23.90;99.90;;;;;;4996899;28;20432;-67
2023/06/27 12:19:03;;;;;;;5.07;1.10;;;23.80;99.90;;;;;;4996173;28;20610;-67
2023/06/27 12:21:32;;;;;;;5.90;1.47;;;23.90;99.90;;;;;;4995801;28;20256;-67
2023/06/27 12:24:00;;;;;;;5.57;1.00;;;23.90;99.90;;;;;;4994005;28;21206;-67
2023/06/27 12:26:29;;;;;;;4.43;1.07;;;23.80;99.90;;;;;;4995802;28;20330;-67
2023/06/27 12:28:58;;;;;;;3.80;1.27;;;23.50;99.90;;;;;;4996326;28;20232;-67
2023/06/27 12:31:26;;;;;;;4.80;1.30;;;23.10;99.90;;;;;;5009070;28;20231;-67
2023/06/27 12:33:55;;;;;;;3.47;0.90;;;23.10;99.90;;;;;;4993990;28;20256;-67
2023/06/27 12:36:24;;;;;;;3.83;1.10;;;23.50;99.90;;;;;;4997273;28;20221;-66
2023/06/27 12:38:54;;;;;;;4.47;1.30;;;23.50;99.90;;;;;;4996648;28;20232;-67
2023/06/27 12:41:24;;;;;;;3.70;1.20;;;23.30;99.90;;;;;;4994906;28;20669;-66
2023/06/27 12:43:52;;;;;;;3.63;1.23;;;23.00;99.90;;;;;;4994184;28;20229;-66
2023/06/27 12:46:21;;;;;;;4.93;1.23;;;22.70;99.90;;;;;;4997628;28;20336;-67
2023/06/27 12:48:49;;;;;;;3.27;1.00;;;22.60;99.90;;;;;;4996435;28;20683;-66
2023/06/27 12:51:17;;;;;;;4.23;1.20;;;22.40;99.90;;;;;;4996675;28;20233;-67
2023/06/27 12:53:48;;;;;;;5.37;1.33;;;22.10;99.90;;;;;;4993346;28;20618;-67
2023/06/27 12:56:18;;;;;;;5.10;1.13;;;22.00;99.90;;;;;;4996288;28;20782;-66